Time;durP1;ratioP1;P1;durP2;ratioP2;P2;SDS_P1;SDS_P2;PMS_P1;PMS_P2;Temp;Humidity;BMP_temperature;BMP_pressure;BME280_temperature;BME280_humidity;BME280_pressure;Samples;Min_cycle;Max_cycle;Signal;HPM_P1;HPM_P2
2021/08/07 00:01:37;;;;;;;5.53;2.40;;;15.90;99.90;;;;;;5037354;28;20048;-69
2021/08/07 00:04:04;;;;;;;7.18;2.67;;;15.90;99.90;;;;;;5036720;28;20099;-69
2021/08/07 00:06:31;;;;;;;5.28;2.58;;;15.80;99.90;;;;;;5018466;28;20095;-69
2021/08/07 00:08:59;;;;;;;4.38;2.30;;;15.80;99.90;;;;;;5016837;28;20145;-69
2021/08/07 00:11:26;;;;;;;4.03;2.00;;;15.70;99.90;;;;;;5033392;28;20049;-69
2021/08/07 00:13:53;;;;;;;5.80;2.42;;;15.70;99.90;;;;;;5038684;28;20488;-69
2021/08/07 00:16:20;;;;;;;6.75;2.42;;;15.70;99.90;;;;;;5023921;28;20056;-69
2021/08/07 00:18:48;;;;;;;4.10;2.30;;;15.60;99.90;;;;;;5038702;28;20049;-69
2021/08/07 00:21:15;;;;;;;5.03;2.00;;;15.60;99.90;;;;;;5030319;28;20112;-69
2021/08/07 00:23:42;;;;;;;6.97;2.70;;;15.50;99.90;;;;;;5015843;28;20124;-69
2021/08/07 00:26:10;;;;;;;4.90;2.40;;;15.50;99.90;;;;;;5038454;28;20053;-69
2021/08/07 00:28:37;;;;;;;4.57;2.30;;;15.50;99.90;;;;;;5033852;28;20098;-70
2021/08/07 00:31:05;;;;;;;4.40;2.20;;;15.40;99.90;;;;;;5038229;28;20136;-67
2021/08/07 00:33:37;;;;;;;4.88;2.50;;;15.40;99.90;;;;;;5041706;28;20438;-69
2021/08/07 00:36:07;;;;;;;4.78;2.33;;;15.40;99.90;;;;;;5028461;28;20845;-69
2021/08/07 00:38:35;;;;;;;6.68;2.60;;;15.40;99.90;;;;;;5039453;28;20045;-69
2021/08/07 00:41:04;;;;;;;7.45;2.40;;;15.30;99.90;;;;;;5015234;28;20163;-67
2021/08/07 00:43:33;;;;;;;5.25;2.63;;;15.30;99.90;;;;;;5038817;28;20041;-67
2021/08/07 00:46:06;;;;;;;5.50;2.60;;;15.30;99.90;;;;;;5015330;28;20045;-67
2021/08/07 00:48:36;;;;;;;6.78;2.35;;;15.20;99.90;;;;;;5020561;28;20041;-67
2021/08/07 00:51:15;;;;;;;5.18;2.38;;;15.20;99.90;;;;;;5029875;28;20049;-67
2021/08/07 00:53:45;;;;;;;4.47;2.08;;;15.20;99.90;;;;;;5013586;28;20115;-67
2021/08/07 00:56:18;;;;;;;5.57;2.42;;;15.10;99.90;;;;;;5023063;28;20063;-67
2021/08/07 00:58:50;;;;;;;;;;;15.10;99.90;;;;;;5036453;28;20044;-67
2021/08/07 01:01:21;;;;;;;5.72;2.40;;;15.00;99.90;;;;;;5042084;28;19924;-68
2021/08/07 01:03:53;;;;;;;4.63;2.20;;;14.90;99.90;;;;;;5036156;28;20035;-68
2021/08/07 01:06:44;;;;;;;3.85;2.10;;;14.90;99.90;;;;;;5031551;28;20411;-68
2021/08/07 01:09:39;;;;;;;5.20;2.20;;;14.90;99.90;;;;;;5014260;28;20045;-68
2021/08/07 01:12:29;;;;;;;3.25;2.10;;;14.80;99.90;;;;;;5029617;28;20038;-69
2021/08/07 01:15:01;;;;;;;6.03;2.13;;;14.70;99.90;;;;;;5038111;28;20041;-68
2021/08/07 01:17:33;;;;;;;5.97;2.30;;;14.70;99.90;;;;;;5027601;28;20072;-68
2021/08/07 01:20:19;;;;;;;4.88;2.33;;;14.70;99.90;;;;;;5014949;28;20268;-68
2021/08/07 01:23:24;;;;;;;3.80;2.28;;;14.70;99.90;;;;;;5025350;28;20045;-68
2021/08/07 01:26:43;;;;;;;5.65;2.40;;;14.70;99.90;;;;;;5047223;28;20518;-68
2021/08/07 01:29:17;;;;;;;6.60;2.20;;;14.70;99.90;;;;;;4954678;28;20074;-68
2021/08/07 01:31:52;;;;;;;4.45;2.47;;;14.70;99.90;;;;;;4956536;28;20034;-68
2021/08/07 01:34:27;;;;;;;6.38;2.60;;;14.60;99.90;;;;;;4983974;28;20461;-68
2021/08/07 01:36:55;;;;;;;6.32;2.25;;;14.60;99.90;;;;;;4997255;28;20038;-68
2021/08/07 01:39:43;;;;;;;5.65;2.40;;;14.60;99.90;;;;;;5000689;28;20386;-68
2021/08/07 01:42:12;;;;;;;5.38;2.33;;;14.60;99.90;;;;;;4987910;28;20657;-68
2021/08/07 01:44:42;;;;;;;6.38;2.42;;;14.60;99.90;;;;;;4969900;28;20564;-68
2021/08/07 01:47:20;;;;;;;5.00;2.50;;;14.60;99.90;;;;;;4969807;28;20622;-68
2021/08/07 01:50:01;;;;;;;5.03;2.20;;;14.60;99.90;;;;;;4954747;28;20539;-68
2021/08/07 01:52:34;;;;;;;4.25;2.38;;;14.60;99.90;;;;;;4988221;28;20054;-68
2021/08/07 01:55:33;;;;;;;5.45;2.55;;;14.60;99.90;;;;;;4947209;28;20058;-68
2021/08/07 01:58:10;;;;;;;5.03;2.60;;;14.50;99.90;;;;;;4984021;28;20053;-68
2021/08/07 02:00:41;;;;;;;6.43;2.40;;;14.50;99.90;;;;;;5018266;28;20132;-68
2021/08/07 02:03:15;;;;;;;5.63;2.28;;;14.50;99.90;;;;;;5035918;28;20041;-68
2021/08/07 02:05:44;;;;;;;5.20;2.50;;;14.50;99.90;;;;;;5046860;28;20041;-68
2021/08/07 02:08:13;;;;;;;5.70;2.10;;;14.50;99.90;;;;;;5034616;28;20048;-68
2021/08/07 02:10:51;;;;;;;5.10;2.30;;;14.50;99.90;;;;;;5031259;28;20103;-68
2021/08/07 02:13:21;;;;;;;4.20;2.13;;;14.50;99.90;;;;;;5033520;28;20131;-68
2021/08/07 02:15:55;;;;;;;4.25;2.10;;;14.40;99.90;;;;;;5037842;28;20052;-68
2021/08/07 02:18:31;;;;;;;4.55;2.03;;;14.40;99.90;;;;;;5034998;28;20045;-67
2021/08/07 02:21:00;;;;;;;5.47;2.42;;;14.40;99.90;;;;;;5020267;28;20504;-68
2021/08/07 02:23:34;;;;;;;4.22;2.20;;;14.40;99.90;;;;;;5027019;28;20051;-68
2021/08/07 02:26:10;;;;;;;6.18;2.47;;;14.40;99.90;;;;;;5025086;28;20065;-68
2021/08/07 02:28:46;;;;;;;5.63;2.58;;;14.40;99.90;;;;;;5028454;28;20067;-68
2021/08/07 02:31:15;;;;;;;4.03;2.20;;;14.40;99.90;;;;;;5028587;28;20129;-68
2021/08/07 02:33:46;;;;;;;6.95;2.08;;;14.40;99.90;;;;;;5012763;28;20041;-68
2021/08/07 02:36:16;;;;;;;6.53;2.30;;;14.40;99.90;;;;;;5012271;28;20073;-68
2021/08/07 02:38:50;;;;;;;6.55;2.40;;;14.50;99.90;;;;;;5013711;28;20053;-68
2021/08/07 02:41:19;;;;;;;6.93;3.78;;;14.40;99.90;;;;;;5029165;28;20041;-68
2021/08/07 02:43:48;;;;;;;6.13;3.00;;;14.40;99.90;;;;;;5031488;28;20931;-68
2021/08/07 02:46:18;;;;;;;5.57;2.60;;;14.30;99.90;;;;;;5031261;28;20049;-68
2021/08/07 02:48:48;;;;;;;6.97;2.97;;;14.30;99.90;;;;;;5034817;28;20033;-68
2021/08/07 02:51:17;;;;;;;5.25;2.40;;;14.30;99.90;;;;;;5027498;28;20068;-68
2021/08/07 02:53:50;;;;;;;5.72;2.60;;;14.30;99.90;;;;;;5029470;28;20047;-68
2021/08/07 02:56:19;;;;;;;5.18;2.60;;;14.30;99.90;;;;;;5010577;28;20056;-68
2021/08/07 02:58:47;;;;;;;5.50;2.42;;;14.30;99.90;;;;;;5032237;28;20435;-68
2021/08/07 03:01:16;;;;;;;6.40;2.30;;;14.20;99.90;;;;;;5038613;28;20041;-68
2021/08/07 03:03:50;;;;;;;6.22;2.63;;;14.20;99.90;;;;;;5036429;28;20530;-68
2021/08/07 03:06:18;;;;;;;7.63;2.53;;;14.20;99.90;;;;;;5039330;28;20041;-68
2021/08/07 03:08:46;;;;;;;3.92;2.25;;;14.20;99.90;;;;;;5041761;28;20041;-68
2021/08/07 03:11:14;;;;;;;4.22;2.25;;;14.20;99.90;;;;;;5047842;28;20036;-68
2021/08/07 03:13:43;;;;;;;5.18;2.60;;;14.30;99.90;;;;;;5040082;28;20128;-68
2021/08/07 03:16:11;;;;;;;6.07;2.50;;;14.30;99.90;;;;;;5016925;28;20053;-68
2021/08/07 03:18:43;;;;;;;9.10;2.63;;;14.30;99.90;;;;;;5019659;28;20044;-68
2021/08/07 03:21:12;;;;;;;4.78;2.25;;;14.30;99.90;;;;;;5036319;28;20120;-68
2021/08/07 03:23:52;;;;;;;4.07;2.13;;;14.30;99.90;;;;;;5020433;28;20045;-68
2021/08/07 03:26:21;;;;;;;5.05;2.22;;;14.30;99.90;;;;;;5033875;28;20411;-68
2021/08/07 03:28:48;;;;;;;4.40;2.20;;;14.30;99.90;;;;;;5037531;28;20057;-68
2021/08/07 03:31:20;;;;;;;5.70;2.45;;;14.30;99.90;;;;;;5038360;28;20049;-68
2021/08/07 03:33:47;;;;;;;3.72;2.13;;;14.30;99.90;;;;;;5037327;28;20114;-68
2021/08/07 03:36:17;;;;;;;6.80;2.38;;;14.30;99.90;;;;;;5037274;28;20095;-68
2021/08/07 03:38:52;;;;;;;5.07;2.33;;;14.30;99.90;;;;;;5028216;28;20041;-68
2021/08/07 03:41:20;;;;;;;6.85;2.40;;;14.30;99.90;;;;;;5044660;28;20037;-68
2021/08/07 03:43:48;;;;;;;4.13;2.30;;;14.30;99.90;;;;;;5047206;28;20060;-68
2021/08/07 03:46:18;;;;;;;7.22;2.42;;;14.30;99.90;;;;;;5018145;28;20046;-68
2021/08/07 03:48:46;;;;;;;5.05;2.38;;;14.30;99.90;;;;;;5036730;28;20457;-68
2021/08/07 03:51:13;;;;;;;4.18;2.28;;;14.30;99.90;;;;;;5017144;28;20083;-68
2021/08/07 03:53:45;;;;;;;6.40;2.50;;;14.30;99.90;;;;;;5031634;28;20562;-68
2021/08/07 03:56:18;;;;;;;5.70;2.35;;;14.20;99.90;;;;;;5029195;28;20124;-68
2021/08/07 03:58:45;;;;;;;4.68;2.47;;;14.20;99.90;;;;;;5023897;28;20535;-68
2021/08/07 04:01:14;;;;;;;6.30;2.20;;;14.20;99.90;;;;;;5040616;28;20488;-68
2021/08/07 04:03:42;;;;;;;5.35;2.17;;;14.30;99.90;;;;;;5048323;28;20114;-68
2021/08/07 04:06:31;;;;;;;4.82;2.25;;;14.30;99.90;;;;;;5026758;28;20046;-68
2021/08/07 04:09:00;;;;;;;5.88;2.40;;;14.30;99.90;;;;;;5025815;28;20907;-68
2021/08/07 04:11:30;;;;;;;4.10;2.13;;;14.40;99.90;;;;;;5031330;28;20052;-68
2021/08/07 04:14:02;;;;;;;6.60;2.20;;;14.40;99.90;;;;;;5004945;28;20053;-68
2021/08/07 04:16:30;;;;;;;4.43;2.35;;;14.40;99.90;;;;;;5015565;28;20107;-68
2021/08/07 04:19:04;;;;;;;5.30;2.40;;;14.50;99.90;;;;;;5028816;28;20049;-68
2021/08/07 04:21:32;;;;;;;3.53;2.17;;;14.50;99.90;;;;;;5032725;28;20555;-68
2021/08/07 04:24:00;;;;;;;4.93;2.40;;;14.50;99.90;;;;;;5041665;28;20435;-68
2021/08/07 04:26:29;;;;;;;4.13;1.98;;;14.50;99.90;;;;;;5024252;28;20165;-68
2021/08/07 04:28:56;;;;;;;4.80;2.38;;;14.50;99.90;;;;;;5043703;28;20043;-68
2021/08/07 04:31:23;;;;;;;4.45;2.33;;;14.60;99.90;;;;;;4999154;28;20056;-68
2021/08/07 04:33:51;;;;;;;3.67;2.03;;;14.70;99.90;;;;;;5009140;28;20052;-68
2021/08/07 04:36:18;;;;;;;5.88;2.30;;;14.70;99.90;;;;;;5025020;28;20045;-68
2021/08/07 04:38:46;;;;;;;5.28;2.17;;;14.80;99.90;;;;;;5028548;28;20560;-68
2021/08/07 04:41:13;;;;;;;4.03;1.95;;;14.80;99.90;;;;;;5028340;28;20046;-68
2021/08/07 04:43:40;;;;;;;4.22;2.13;;;14.90;99.90;;;;;;5033127;28;20037;-68
2021/08/07 04:46:10;;;;;;;4.72;2.40;;;15.00;99.90;;;;;;5043900;28;20045;-68
2021/08/07 04:48:38;;;;;;;4.63;2.55;;;15.00;99.90;;;;;;5041992;28;20037;-68
2021/08/07 04:51:13;;;;;;;4.28;2.38;;;15.10;99.90;;;;;;5016301;28;20049;-68
2021/08/07 04:53:43;;;;;;;4.15;2.15;;;15.20;99.90;;;;;;5008626;28;20133;-68
2021/08/07 04:56:14;;;;;;;5.25;2.20;;;15.20;99.90;;;;;;5035429;28;20067;-68
2021/08/07 04:58:42;;;;;;;7.25;2.47;;;15.30;99.90;;;;;;5037404;28;20034;-68
2021/08/07 05:01:11;;;;;;;5.68;2.50;;;15.30;99.90;;;;;;5032694;28;20698;-68
2021/08/07 05:03:39;;;;;;;4.55;1.98;;;15.40;99.90;;;;;;5046222;28;20060;-68
2021/08/07 05:06:10;;;;;;;4.25;1.90;;;15.40;99.90;;;;;;5027032;28;20041;-68
2021/08/07 05:08:38;;;;;;;4.32;2.25;;;15.40;99.90;;;;;;5037930;28;20543;-68
2021/08/07 05:11:06;;;;;;;7.07;2.30;;;15.40;99.90;;;;;;5037157;28;20073;-68
2021/08/07 05:13:33;;;;;;;4.78;2.35;;;15.50;99.90;;;;;;5015951;28;20046;-68
2021/08/07 05:16:04;;;;;;;4.15;2.35;;;15.60;99.90;;;;;;5031875;28;20077;-68
2021/08/07 05:18:31;;;;;;;6.88;2.20;;;15.60;99.90;;;;;;5028753;28;20050;-68
2021/08/07 05:21:01;;;;;;;6.05;2.50;;;15.70;99.90;;;;;;4996563;28;20038;-68
2021/08/07 05:23:30;;;;;;;6.05;2.55;;;15.90;99.90;;;;;;5011708;28;20764;-68
2021/08/07 05:25:57;;;;;;;6.18;2.38;;;16.00;99.90;;;;;;5013845;28;20034;-68
2021/08/07 05:28:25;;;;;;;4.10;2.20;;;16.10;99.90;;;;;;5016465;28;20052;-68
2021/08/07 05:30:53;;;;;;;5.28;2.30;;;16.30;99.90;;;;;;5032840;28;20047;-68
2021/08/07 05:33:21;;;;;;;5.35;2.40;;;16.50;99.90;;;;;;5033662;28;20076;-69
2021/08/07 05:35:49;;;;;;;4.20;1.95;;;16.60;99.90;;;;;;5016367;28;20131;-68
2021/08/07 05:38:17;;;;;;;3.95;2.13;;;16.70;99.90;;;;;;5028102;28;20049;-69
2021/08/07 05:40:45;;;;;;;5.50;1.95;;;16.70;99.90;;;;;;5030325;28;20124;-68
2021/08/07 05:43:12;;;;;;;4.18;1.90;;;16.70;99.90;;;;;;5032371;28;20045;-68
2021/08/07 05:45:40;;;;;;;3.67;1.90;;;16.80;99.90;;;;;;5032848;28;20041;-68
2021/08/07 05:48:07;;;;;;;7.00;1.90;;;16.90;99.90;;;;;;5028773;28;20037;-69
2021/08/07 05:50:38;;;;;;;3.38;1.90;;;16.80;99.90;;;;;;5030273;28;20046;-68
2021/08/07 05:53:06;;;;;;;3.63;1.70;;;16.90;99.90;;;;;;5029483;28;20048;-69
2021/08/07 05:55:34;;;;;;;3.78;2.40;;;16.90;99.90;;;;;;5029125;28;20527;-68
2021/08/07 05:58:03;;;;;;;5.70;2.50;;;16.90;99.90;;;;;;5032242;28;20124;-68
2021/08/07 06:00:37;;;;;;;6.25;2.40;;;16.90;99.90;;;;;;5027386;28;20044;-70
2021/08/07 06:03:04;;;;;;;3.35;2.00;;;17.00;99.90;;;;;;5048118;28;20040;-68
2021/08/07 06:05:37;;;;;;;5.20;2.15;;;17.00;99.90;;;;;;5048771;28;20115;-68
2021/08/07 06:08:06;;;;;;;4.60;2.20;;;17.00;99.90;;;;;;5029935;28;20090;-68
2021/08/07 06:10:35;;;;;;;5.53;2.13;;;17.10;99.90;;;;;;5047799;28;20057;-68
2021/08/07 06:13:03;;;;;;;6.25;2.78;;;17.10;99.90;;;;;;5014692;28;20095;-68
2021/08/07 06:15:31;;;;;;;3.83;1.92;;;17.10;99.90;;;;;;5048427;28;20041;-68
2021/08/07 06:18:00;;;;;;;4.68;2.10;;;17.30;99.90;;;;;;5015120;28;20442;-68
2021/08/07 06:20:30;;;;;;;4.25;1.83;;;17.40;99.90;;;;;;5029855;28;20073;-68
2021/08/07 06:22:57;;;;;;;9.45;2.42;;;17.50;99.90;;;;;;5029660;28;20041;-68
2021/08/07 06:25:25;;;;;;;4.50;2.00;;;17.70;99.90;;;;;;5013533;28;20037;-68
2021/08/07 06:27:54;;;;;;;5.60;2.65;;;17.70;99.90;;;;;;5028961;28;20037;-68
2021/08/07 06:30:25;;;;;;;4.68;2.55;;;17.80;99.90;;;;;;5010011;28;20072;-68
2021/08/07 06:32:54;;;;;;;7.15;2.35;;;17.90;99.90;;;;;;5039583;28;20041;-68
2021/08/07 06:35:22;;;;;;;4.63;2.03;;;17.90;99.90;;;;;;5028850;28;20515;-68
2021/08/07 06:37:51;;;;;;;4.95;2.22;;;18.00;99.90;;;;;;5029504;28;20137;-69
2021/08/07 06:40:22;;;;;;;5.90;2.28;;;18.10;99.90;;;;;;5029272;28;20076;-69
2021/08/07 06:42:49;;;;;;;6.55;2.58;;;18.10;99.90;;;;;;5029634;28;20136;-69
2021/08/07 06:45:42;;;;;;;6.10;2.13;;;18.10;99.90;;;;;;5021150;28;20128;-69
2021/08/07 06:48:13;;;;;;;5.13;1.83;;;18.20;99.90;;;;;;5015207;28;20448;-69
2021/08/07 06:50:40;;;;;;;3.83;1.55;;;18.30;99.90;;;;;;5002430;28;20033;-69
2021/08/07 06:53:10;;;;;;;3.45;1.60;;;18.40;99.90;;;;;;5020722;28;20569;-69
2021/08/07 06:55:37;;;;;;;3.55;1.98;;;18.50;99.90;;;;;;5031702;28;20099;-69
2021/08/07 06:58:05;;;;;;;3.60;1.70;;;18.60;99.90;;;;;;5010972;28;20049;-69
2021/08/07 07:00:36;;;;;;;7.03;1.80;;;18.70;99.90;;;;;;5027773;28;20069;-69
2021/08/07 07:03:04;;;;;;;4.88;2.05;;;18.70;99.90;;;;;;5045684;28;20510;-69
2021/08/07 07:05:34;;;;;;;4.32;1.90;;;18.80;99.90;;;;;;5029618;28;20077;-69
2021/08/07 07:08:04;;;;;;;3.47;1.80;;;18.90;99.90;;;;;;5043341;28;20076;-69
2021/08/07 07:10:33;;;;;;;4.30;1.70;;;18.90;99.90;;;;;;5029190;28;20408;-69
2021/08/07 07:13:02;;;;;;;6.18;1.92;;;19.10;99.90;;;;;;5043718;28;20041;-69
2021/08/07 07:15:31;;;;;;;4.00;1.90;;;19.10;99.90;;;;;;5037163;28;20125;-69
2021/08/07 07:17:59;;;;;;;5.22;2.50;;;19.30;99.90;;;;;;5030461;28;20435;-69
2021/08/07 07:20:26;;;;;;;7.63;3.28;;;19.40;99.90;;;;;;5015641;28;20047;-69
2021/08/07 07:22:54;;;;;;;7.18;3.53;;;19.50;99.90;;;;;;5037210;28;20033;-69
2021/08/07 07:25:22;;;;;;;6.03;3.30;;;19.70;99.90;;;;;;5032697;28;20351;-69
2021/08/07 07:27:49;;;;;;;4.32;2.17;;;19.90;99.90;;;;;;5028876;28;20041;-68
2021/08/07 07:30:18;;;;;;;6.88;2.33;;;20.10;99.90;;;;;;5023787;28;20805;-69
2021/08/07 07:32:46;;;;;;;5.22;2.20;;;20.40;99.90;;;;;;5025624;28;20088;-68
2021/08/07 07:35:14;;;;;;;7.28;2.03;;;20.70;99.90;;;;;;5031048;28;20550;-69
2021/08/07 07:37:43;;;;;;;5.40;2.30;;;20.80;99.90;;;;;;5009218;28;20475;-69
2021/08/07 07:40:11;;;;;;;12.25;8.95;;;21.00;99.90;;;;;;5009204;28;20496;-69
2021/08/07 07:42:38;;;;;;;7.07;4.07;;;21.20;99.90;;;;;;5046360;28;20060;-69
2021/08/07 07:45:07;;;;;;;6.10;2.58;;;21.50;99.90;;;;;;5044801;28;20487;-69
2021/08/07 07:47:37;;;;;;;5.70;2.53;;;21.70;99.90;;;;;;5018747;28;20045;-69
2021/08/07 07:50:05;;;;;;;4.80;1.77;;;21.80;99.90;;;;;;5018518;28;20037;-69
2021/08/07 07:52:32;;;;;;;4.78;1.63;;;21.80;99.90;;;;;;5031263;28;20045;-69
2021/08/07 07:55:00;;;;;;;4.05;1.73;;;21.80;99.90;;;;;;5005651;28;20045;-69
2021/08/07 07:57:31;;;;;;;;;;;21.80;99.90;;;;;;5029140;28;20038;-69
2021/08/07 07:59:59;;;;;;;4.88;2.30;;;21.80;99.90;;;;;;5033526;28;19975;-69
2021/08/07 08:02:29;;;;;;;5.25;2.05;;;21.80;99.90;;;;;;5011491;28;20034;-69
2021/08/07 08:04:56;;;;;;;6.90;4.57;;;21.70;99.90;;;;;;5031862;28;20045;-69
2021/08/07 08:07:24;;;;;;;4.93;1.77;;;21.80;99.90;;;;;;5028813;28;20109;-69
2021/08/07 08:09:52;;;;;;;4.13;1.58;;;21.90;99.90;;;;;;5032337;28;20034;-69
2021/08/07 08:12:19;;;;;;;4.63;2.00;;;22.00;99.90;;;;;;5031483;28;20061;-69
2021/08/07 08:15:07;;;;;;;4.30;2.33;;;22.00;99.90;;;;;;5018668;28;20052;-69
2021/08/07 08:17:35;;;;;;;3.67;1.40;;;22.10;99.90;;;;;;5031494;28;20069;-69
2021/08/07 08:20:05;;;;;;;3.80;1.70;;;22.10;99.90;;;;;;5035008;28;20053;-69
2021/08/07 08:22:35;;;;;;;4.80;1.75;;;22.20;99.90;;;;;;5046583;28;20048;-69
2021/08/07 08:25:06;;;;;;;6.10;2.38;;;22.30;99.90;;;;;;5044976;28;20048;-69
2021/08/07 08:27:34;;;;;;;4.60;2.03;;;22.50;99.90;;;;;;5047771;28;20110;-69
2021/08/07 08:30:02;;;;;;;4.55;2.58;;;22.70;99.90;;;;;;5046321;28;20037;-69
2021/08/07 08:32:30;;;;;;;5.40;1.77;;;22.80;99.90;;;;;;5029394;28;20073;-69
2021/08/07 08:34:57;;;;;;;3.78;1.73;;;22.90;99.90;;;;;;5029037;28;20045;-69
2021/08/07 08:37:25;;;;;;;4.32;1.50;;;23.00;99.90;;;;;;5033904;28;20049;-69
2021/08/07 08:39:53;;;;;;;4.00;2.33;;;23.00;99.90;;;;;;5017941;28;20049;-68
2021/08/07 08:42:21;;;;;;;4.22;2.17;;;23.00;99.90;;;;;;5035739;28;20387;-69
2021/08/07 08:44:49;;;;;;;5.00;1.90;;;23.20;99.90;;;;;;5041234;28;20415;-69
2021/08/07 08:47:20;;;;;;;4.07;1.85;;;23.40;99.90;;;;;;5014732;28;20106;-68
2021/08/07 08:49:52;;;;;;;;;;;23.50;99.90;;;;;;5019242;28;20041;-69
2021/08/07 08:52:25;;;;;;;4.60;1.73;;;23.80;99.90;;;;;;5025567;28;19929;-68
2021/08/07 08:54:55;;;;;;;4.07;1.88;;;24.00;99.90;;;;;;5025427;28;20060;-69
2021/08/07 08:57:22;;;;;;;4.55;1.40;;;24.10;99.90;;;;;;5006300;28;20045;-68
2021/08/07 08:59:50;;;;;;;3.60;1.40;;;24.20;99.90;;;;;;5048837;28;20476;-69
2021/08/07 09:02:18;;;;;;;6.38;1.80;;;24.30;99.90;;;;;;5046360;28;20044;-70
2021/08/07 09:04:47;;;;;;;4.25;1.70;;;24.50;99.90;;;;;;5030499;28;20128;-69
2021/08/07 09:07:17;;;;;;;5.15;1.70;;;24.50;99.90;;;;;;5029419;28;20038;-68
2021/08/07 09:09:47;;;;;;;3.45;1.70;;;24.40;99.90;;;;;;5037413;28;20376;-69
2021/08/07 09:12:19;;;;;;;4.20;1.77;;;24.30;99.90;;;;;;5027213;28;20132;-70
2021/08/07 09:14:48;;;;;;;7.53;1.80;;;24.40;99.90;;;;;;5032567;28;20103;-70
2021/08/07 09:17:20;;;;;;;6.18;2.97;;;24.60;99.90;;;;;;5005564;28;20060;-70
2021/08/07 09:19:55;;;;;;;3.67;1.42;;;24.80;99.90;;;;;;5019497;28;20048;-69
2021/08/07 09:22:27;;;;;;;5.10;1.40;;;24.80;99.90;;;;;;5020890;28;20042;-69
2021/08/07 09:25:03;;;;;;;3.53;1.70;;;24.60;99.90;;;;;;5026555;28;20121;-68
2021/08/07 09:27:34;;;;;;;3.63;1.45;;;24.60;99.90;;;;;;5038639;28;20427;-69
2021/08/07 09:30:25;;;;;;;6.43;2.00;;;24.50;99.90;;;;;;5029585;28;20068;-70
2021/08/07 09:32:59;;;;;;;6.53;1.60;;;24.30;99.90;;;;;;5028337;28;20056;-70
2021/08/07 09:35:34;;;;;;;8.52;1.73;;;24.30;99.90;;;;;;5033430;28;20110;-70
2021/08/07 09:38:04;;;;;;;6.78;1.90;;;24.30;99.90;;;;;;5032686;28;20611;-70
2021/08/07 09:40:58;;;;;;;3.85;1.50;;;24.30;99.90;;;;;;5029001;28;20038;-68
2021/08/07 09:43:32;;;;;;;5.75;1.73;;;24.30;99.90;;;;;;5033643;28;20037;-68
2021/08/07 09:46:20;;;;;;;4.30;2.27;;;24.40;99.90;;;;;;5024838;28;20093;-69
2021/08/07 09:48:53;;;;;;;;;;;24.70;99.90;;;;;;5002044;28;20041;-69
2021/08/07 09:51:36;;;;;;;4.72;1.60;;;25.00;99.90;;;;;;5029572;28;20346;-68
2021/08/07 09:54:18;;;;;;;5.05;1.63;;;25.20;99.90;;;;;;5031998;28;20132;-68
2021/08/07 09:56:57;;;;;;;4.75;2.17;;;25.50;99.90;;;;;;5041206;28;20033;-68
2021/08/07 09:59:33;;;;;;;4.28;2.22;;;25.80;99.90;;;;;;5023076;28;20084;-68
2021/08/07 10:02:20;;;;;;;3.90;1.70;;;26.00;99.90;;;;;;5032620;28;20053;-69
2021/08/07 10:04:51;;;;;;;7.38;1.70;;;26.00;99.90;;;;;;5030137;28;20025;-71
2021/08/07 10:07:19;;;;;;;4.50;2.15;;;26.00;99.90;;;;;;5033609;28;20045;-69
2021/08/07 10:09:53;;;;;;;4.35;1.80;;;26.20;99.90;;;;;;5031638;28;20041;-69
2021/08/07 10:12:21;;;;;;;4.30;1.63;;;26.50;99.90;;;;;;5030935;28;20559;-70
2021/08/07 10:14:52;;;;;;;;;;;26.60;99.90;;;;;;5024980;28;20042;-69
2021/08/07 10:17:24;;;;;;;6.07;1.77;;;26.70;99.90;;;;;;5036093;28;20388;-70
2021/08/07 10:19:54;;;;;;;3.60;1.65;;;26.90;99.90;;;;;;5018466;28;20562;-70
2021/08/07 10:22:24;;;;;;;5.70;1.60;;;27.00;99.90;;;;;;5012923;28;20064;-69
2021/08/07 10:25:02;;;;;;;4.45;2.50;;;27.30;99.90;;;;;;5014449;28;20092;-70
2021/08/07 10:27:32;;;;;;;6.30;3.10;;;27.50;99.90;;;;;;4998728;28;20053;-70
2021/08/07 10:30:03;;;;;;;6.03;1.80;;;27.80;99.90;;;;;;5020180;28;20116;-69
2021/08/07 10:32:42;;;;;;;3.70;1.70;;;27.90;99.90;;;;;;5031296;28;20485;-69
2021/08/07 10:35:12;;;;;;;3.88;1.33;;;28.00;99.90;;;;;;5037785;28;20100;-69
2021/08/07 10:37:43;;;;;;;4.28;1.58;;;28.10;99.90;;;;;;5012567;28;20084;-69
2021/08/07 10:40:12;;;;;;;2.92;1.33;;;27.90;99.90;;;;;;5000574;28;20056;-68
2021/08/07 10:42:43;;;;;;;3.58;1.55;;;27.60;99.90;;;;;;5023088;28;20420;-69
2021/08/07 10:45:13;;;;;;;4.32;1.70;;;27.10;99.90;;;;;;5030619;28;20050;-69
2021/08/07 10:47:44;;;;;;;5.22;1.40;;;26.90;99.90;;;;;;5023643;28;20044;-69
2021/08/07 10:50:31;;;;;;;4.80;1.40;;;26.80;99.90;;;;;;4993935;28;20400;-68
2021/08/07 10:53:27;;;;;;;4.28;1.63;;;26.70;99.90;;;;;;5025405;28;20092;-68
2021/08/07 10:55:55;;;;;;;3.83;1.63;;;26.50;99.90;;;;;;5023136;28;20038;-68
2021/08/07 10:58:35;;;;;;;3.28;1.63;;;25.90;99.90;;;;;;5015271;28;20080;-69
2021/08/07 11:01:21;;;;;;;6.07;1.77;;;25.70;99.90;;;;;;5019049;28;20135;-69
2021/08/07 11:03:51;;;;;;;5.00;1.58;;;25.60;99.90;;;;;;5008422;28;20076;-68
2021/08/07 11:06:19;;;;;;;3.15;1.50;;;25.50;99.90;;;;;;5030388;28;20463;-68
2021/08/07 11:08:46;;;;;;;7.30;1.80;;;25.40;99.90;;;;;;5029314;28;20053;-68
2021/08/07 11:11:27;;;;;;;4.65;1.90;;;25.50;99.90;;;;;;5031396;28;20470;-69
2021/08/07 11:14:28;;;;;;;3.80;1.92;;;25.60;99.90;;;;;;5008416;28;20072;-68
2021/08/07 11:17:05;;;;;;;3.38;1.60;;;25.70;99.90;;;;;;5026414;28;20171;-68
2021/08/07 11:19:51;;;;;;;3.70;1.63;;;25.50;99.90;;;;;;5026706;28;20099;-67
2021/08/07 11:22:32;;;;;;;3.75;1.50;;;25.40;99.90;;;;;;5049743;28;20037;-67
2021/08/07 11:25:01;;;;;;;8.33;3.87;;;25.50;99.90;;;;;;5039712;28;20073;-68
2021/08/07 11:27:52;;;;;;;5.80;1.83;;;25.80;99.90;;;;;;5025813;28;20045;-69
2021/08/07 11:30:19;;;;;;;3.95;1.70;;;26.10;99.90;;;;;;5007116;28;20107;-69
2021/08/07 11:33:00;;;;;;;5.55;1.85;;;26.40;99.90;;;;;;5018496;28;20054;-69
2021/08/07 11:35:34;;;;;;;4.10;1.60;;;26.60;99.90;;;;;;5034302;28;20053;-69
2021/08/07 11:40:47;;;;;;;8.07;2.17;;;26.30;99.90;;;;;;5032110;28;20076;-69
2021/08/07 11:43:21;;;;;;;3.20;1.60;;;26.30;99.90;;;;;;5029969;28;20049;-69
2021/08/07 11:46:02;;;;;;;4.68;1.85;;;26.20;99.90;;;;;;5043154;28;20045;-69
2021/08/07 11:48:36;;;;;;;6.38;2.10;;;26.10;99.90;;;;;;5034887;28;20124;-68
2021/08/07 11:51:09;;;;;;;3.97;1.85;;;25.80;99.90;;;;;;5031322;28;20408;-69
2021/08/07 11:53:44;;;;;;;4.70;1.65;;;25.70;99.90;;;;;;5031902;28;20072;-69
2021/08/07 11:56:13;;;;;;;5.75;1.70;;;25.50;99.90;;;;;;4999209;28;20090;-69
2021/08/07 11:58:59;;;;;;;4.38;1.70;;;25.10;99.90;;;;;;5011070;28;20045;-68
2021/08/07 12:01:30;;;;;;;3.65;1.88;;;25.00;99.90;;;;;;5024937;28;20050;-68
2021/08/07 12:03:58;;;;;;;3.60;1.92;;;24.80;99.90;;;;;;5032484;28;20041;-68
2021/08/07 12:06:36;;;;;;;6.38;1.98;;;24.50;99.90;;;;;;5049318;28;20033;-69
2021/08/07 12:09:12;;;;;;;5.93;2.00;;;24.20;99.90;;;;;;5045987;28;20033;-68
2021/08/07 12:11:41;;;;;;;4.60;2.47;;;24.00;99.90;;;;;;5036450;28;20048;-69
2021/08/07 12:14:10;;;;;;;5.28;2.22;;;23.70;99.90;;;;;;5035691;28;20052;-68
2021/08/07 12:16:40;;;;;;;10.05;5.60;;;23.40;99.90;;;;;;5034425;28;20045;-68
2021/08/07 12:19:20;;;;;;;4.72;2.40;;;23.20;99.90;;;;;;5030434;28;20062;-68
2021/08/07 12:21:49;;;;;;;6.72;2.28;;;23.00;99.90;;;;;;5031196;28;20523;-68
2021/08/07 12:24:23;;;;;;;4.63;2.10;;;22.90;99.90;;;;;;5048789;28;20051;-68
2021/08/07 12:26:56;;;;;;;5.82;2.10;;;22.70;99.90;;;;;;5048169;28;20124;-68
2021/08/07 12:29:27;;;;;;;5.22;2.22;;;22.50;99.90;;;;;;5048801;28;20334;-68
2021/08/07 12:32:03;;;;;;;9.75;2.25;;;22.30;99.90;;;;;;5040655;28;20408;-68
2021/08/07 12:34:43;;;;;;;4.45;2.10;;;21.90;99.90;;;;;;5037560;28;20045;-68
2021/08/07 12:37:13;;;;;;;7.95;2.78;;;21.70;99.90;;;;;;5029735;28;20459;-68
2021/08/07 12:39:49;;;;;;;9.38;2.50;;;21.60;99.90;;;;;;5031572;28;20049;-68
2021/08/07 12:42:23;;;;;;;6.50;2.92;;;21.40;99.90;;;;;;5025786;28;20048;-68
2021/08/07 12:45:14;;;;;;;10.85;3.88;;;21.30;99.90;;;;;;5048763;28;20136;-68
2021/08/07 12:47:41;;;;;;;7.10;2.97;;;21.10;99.90;;;;;;5038700;28;20102;-68
2021/08/07 12:50:12;;;;;;;7.13;3.17;;;20.80;99.90;;;;;;5039213;28;20496;-68
2021/08/07 12:52:50;;;;;;;6.93;2.97;;;20.70;99.90;;;;;;5031609;28;20103;-68
2021/08/07 12:55:20;;;;;;;7.60;2.80;;;20.50;99.90;;;;;;5031247;28;20455;-69
2021/08/07 12:58:14;;;;;;;7.25;3.25;;;20.40;99.90;;;;;;5009115;28;20403;-68
2021/08/07 13:00:42;;;;;;;6.70;3.00;;;20.20;99.90;;;;;;5035879;28;20410;-68
2021/08/07 13:03:11;;;;;;;7.05;3.00;;;20.10;99.90;;;;;;5023199;28;20453;-68
2021/08/07 13:05:40;;;;;;;5.43;2.88;;;20.00;99.90;;;;;;5030910;28;20388;-68
2021/08/07 13:08:43;;;;;;;5.50;2.85;;;20.00;99.90;;;;;;5027113;28;20049;-68
2021/08/07 13:11:21;;;;;;;6.93;2.92;;;20.00;99.90;;;;;;4952998;28;20062;-69
2021/08/07 13:13:55;;;;;;;7.00;3.13;;;19.80;99.90;;;;;;4951513;28;20051;-68
2021/08/07 13:16:44;;;;;;;6.53;3.05;;;19.80;99.90;;;;;;4973758;28;20535;-69